Time;durP1;ratioP1;P1;durP2;ratioP2;P2;SDS_P1;SDS_P2;PMS_P1;PMS_P2;Temp;Humidity;BMP_temperature;BMP_pressure;BME280_temperature;BME280_humidity;BME280_pressure;Samples;Min_cycle;Max_cycle;Signal;HPM_P1;HPM_P2
2022/07/21 00:00:18;;;;;;;36.03;33.37;;;21.80;91.50;;;;;;4971718;28;20514;-69
2022/07/21 00:02:45;;;;;;;38.03;35.10;;;21.80;91.70;;;;;;4971028;28;20484;-71
2022/07/21 00:05:12;;;;;;;35.40;32.77;;;21.70;91.90;;;;;;4970145;28;21052;-71
2022/07/21 00:07:39;;;;;;;35.67;33.07;;;21.70;91.80;;;;;;4969395;28;21013;-72
2022/07/21 00:10:07;;;;;;;37.03;34.20;;;21.70;91.90;;;;;;4969425;28;20500;-73
2022/07/21 00:12:36;;;;;;;39.03;36.30;;;21.70;91.90;;;;;;4966777;28;20575;-71
2022/07/21 00:15:04;;;;;;;38.23;35.73;;;21.70;91.90;;;;;;4967395;28;20471;-77
2022/07/21 00:17:31;;;;;;;39.70;36.70;;;21.70;92.00;;;;;;4969254;28;20882;-69
2022/07/21 00:19:58;;;;;;;40.03;37.10;;;21.70;92.10;;;;;;4969705;28;20580;-68
2022/07/21 00:22:25;;;;;;;40.30;36.73;;;21.70;92.10;;;;;;4970490;28;20507;-69
2022/07/21 00:24:52;;;;;;;38.33;35.63;;;21.70;92.20;;;;;;4970205;28;20548;-68
2022/07/21 00:27:19;;;;;;;37.27;34.87;;;21.70;92.30;;;;;;4966811;28;20917;-69
2022/07/21 00:29:47;;;;;;;37.73;35.13;;;21.60;92.30;;;;;;4970409;28;20543;-69
2022/07/21 00:32:14;;;;;;;38.63;35.57;;;21.60;92.30;;;;;;4969828;28;21074;-68
2022/07/21 00:34:41;;;;;;;36.67;33.90;;;21.50;92.60;;;;;;4970544;28;20532;-69
2022/07/21 00:37:08;;;;;;;36.60;34.07;;;21.50;92.70;;;;;;4970288;28;21006;-69
2022/07/21 00:39:35;;;;;;;36.13;33.83;;;21.50;92.60;;;;;;4969723;28;20491;-68
2022/07/21 00:42:02;;;;;;;36.83;34.40;;;21.60;92.50;;;;;;4974343;28;20464;-69
2022/07/21 00:44:29;;;;;;;36.83;34.10;;;21.60;92.40;;;;;;4970054;28;20565;-69
2022/07/21 00:46:58;;;;;;;35.27;32.70;;;21.60;91.90;;;;;;4968113;28;20712;-69
2022/07/21 00:49:25;;;;;;;36.37;33.57;;;21.40;91.90;;;;;;4970266;28;20672;-69
2022/07/21 00:51:52;;;;;;;36.40;34.03;;;21.30;92.20;;;;;;4968228;28;20475;-70
2022/07/21 00:54:20;;;;;;;35.17;32.70;;;21.40;92.30;;;;;;4969596;28;20492;-70
2022/07/21 00:56:47;;;;;;;35.80;33.40;;;21.30;92.60;;;;;;4969296;28;20492;-72
2022/07/21 00:59:16;;;;;;;35.87;33.53;;;21.40;92.50;;;;;;4966631;28;20483;-71
2022/07/21 01:01:43;;;;;;;35.53;33.10;;;21.40;92.50;;;;;;4966707;28;20547;-72
2022/07/21 01:04:11;;;;;;;35.60;33.00;;;21.50;92.40;;;;;;4964264;28;20568;-72
2022/07/21 01:06:38;;;;;;;35.60;33.30;;;21.60;92.40;;;;;;4971570;28;21438;-71
2022/07/21 01:09:05;;;;;;;37.00;34.47;;;21.60;92.40;;;;;;4969551;28;20514;-69
2022/07/21 01:11:32;;;;;;;33.83;31.53;;;21.70;91.90;;;;;;4968700;28;20940;-69
2022/07/21 01:13:59;;;;;;;34.67;32.33;;;21.70;91.30;;;;;;4970235;28;20466;-69
2022/07/21 01:16:27;;;;;;;34.57;32.17;;;21.60;91.60;;;;;;4970645;28;20831;-69
2022/07/21 01:18:54;;;;;;;34.63;32.23;;;21.60;91.50;;;;;;4970496;28;20492;-69
2022/07/21 01:21:31;;;;;;;34.17;32.07;;;21.60;91.20;;;;;;4968067;28;20814;-68
2022/07/21 01:23:58;;;;;;;35.43;32.83;;;21.60;91.70;;;;;;4967150;28;20470;-69
2022/07/21 01:26:25;;;;;;;35.10;32.60;;;21.60;91.40;;;;;;4967862;28;20559;-70
2022/07/21 01:28:52;;;;;;;33.30;31.23;;;21.50;91.20;;;;;;4962502;28;20638;-68
2022/07/21 01:31:20;;;;;;;34.83;32.43;;;21.40;91.30;;;;;;4964771;28;20519;-73
2022/07/21 01:33:47;;;;;;;35.00;32.63;;;21.40;91.20;;;;;;4969788;28;20562;-72
2022/07/21 01:36:14;;;;;;;35.07;32.87;;;21.40;91.30;;;;;;4968606;28;20510;-69
2022/07/21 01:41:33;;;;;;;33.83;31.53;;;21.30;91.90;;;;;;4965881;28;20454;-69
2022/07/21 01:44:01;;;;;;;33.33;31.00;;;21.30;91.80;;;;;;4968804;28;20543;-69
2022/07/21 01:46:30;;;;;;;34.03;31.70;;;21.30;91.70;;;;;;4966416;28;20557;-70
2022/07/21 01:48:57;;;;;;;32.80;30.60;;;21.40;91.60;;;;;;4968024;28;20508;-69
2022/07/21 01:51:25;;;;;;;31.07;29.17;;;21.50;91.30;;;;;;4965377;28;20518;-68
2022/07/21 01:53:54;;;;;;;32.63;30.53;;;21.50;90.80;;;;;;4968832;28;20554;-69
2022/07/21 01:56:22;;;;;;;31.90;29.90;;;21.60;90.20;;;;;;4968265;28;20539;-68
2022/07/21 01:58:50;;;;;;;32.43;30.43;;;21.60;89.30;;;;;;4967201;28;20965;-68
2022/07/21 02:01:17;;;;;;;32.43;30.40;;;21.60;89.50;;;;;;4968875;28;20963;-69
2022/07/21 02:03:45;;;;;;;32.30;30.20;;;21.60;89.50;;;;;;4962559;28;20567;-69
2022/07/21 02:06:13;;;;;;;33.60;31.30;;;21.60;89.20;;;;;;4969006;28;20986;-68
2022/07/21 02:08:42;;;;;;;32.77;30.67;;;21.60;89.40;;;;;;4968280;28;20574;-69
2022/07/21 02:11:11;;;;;;;40.13;37.07;;;21.60;89.90;;;;;;4967168;28;20460;-68
2022/07/21 02:13:38;;;;;;;33.13;30.93;;;21.50;90.30;;;;;;4967834;28;20536;-68
2022/07/21 02:16:06;;;;;;;32.13;29.93;;;21.60;89.90;;;;;;4964052;28;20512;-69
2022/07/21 02:18:33;;;;;;;32.17;30.27;;;21.70;88.90;;;;;;4968466;28;20494;-71
2022/07/21 02:21:00;;;;;;;31.90;29.90;;;21.60;89.10;;;;;;4968569;28;20457;-72
2022/07/21 02:23:27;;;;;;;33.60;31.40;;;21.60;88.70;;;;;;4966953;28;20565;-71
2022/07/21 02:25:56;;;;;;;32.37;30.20;;;21.60;88.80;;;;;;4964957;28;20567;-72
2022/07/21 02:28:25;;;;;;;30.10;28.10;;;21.60;89.30;;;;;;4962987;28;21115;-71
2022/07/21 02:30:52;;;;;;;34.33;32.23;;;21.60;89.70;;;;;;4966978;28;20469;-71
2022/07/21 02:33:20;;;;;;;33.57;31.13;;;21.60;89.60;;;;;;4966307;28;20774;-71
2022/07/21 02:35:47;;;;;;;37.30;34.30;;;21.60;89.50;;;;;;4968311;28;20475;-71
2022/07/21 02:38:14;;;;;;;38.50;35.43;;;21.60;89.90;;;;;;4967404;28;20550;-71
2022/07/21 02:40:41;;;;;;;36.47;33.77;;;21.60;90.20;;;;;;4970608;28;20534;-71
2022/07/21 02:43:08;;;;;;;32.80;30.50;;;21.60;89.90;;;;;;4966813;28;20500;-73
2022/07/21 02:45:37;;;;;;;31.43;29.27;;;21.60;90.00;;;;;;4967196;28;20536;-70
2022/07/21 02:48:09;;;;;;;30.77;28.77;;;21.60;89.60;;;;;;4967576;28;20506;-70
2022/07/21 02:50:39;;;;;;;32.37;30.27;;;21.60;89.70;;;;;;4967560;28;20469;-70
2022/07/21 02:53:07;;;;;;;31.37;29.23;;;21.60;89.40;;;;;;4963833;28;20484;-70
2022/07/21 02:55:34;;;;;;;31.80;29.50;;;21.60;89.30;;;;;;4968028;28;20552;-71
2022/07/21 02:58:06;;;;;;;32.07;29.97;;;21.60;89.70;;;;;;4967902;28;20461;-71
2022/07/21 03:00:34;;;;;;;31.40;29.50;;;21.60;89.70;;;;;;4967512;28;20997;-70
2022/07/21 03:03:03;;;;;;;30.03;28.00;;;21.50;89.90;;;;;;4966993;28;20558;-71
2022/07/21 03:05:30;;;;;;;32.03;30.00;;;21.50;89.70;;;;;;4967902;28;20892;-72
2022/07/21 03:07:57;;;;;;;31.23;29.30;;;21.50;89.80;;;;;;4966890;28;20583;-68
2022/07/21 03:10:24;;;;;;;31.63;29.53;;;21.50;89.90;;;;;;4967505;28;21043;-69
2022/07/21 03:12:51;;;;;;;33.07;30.97;;;21.50;90.10;;;;;;4967039;28;20926;-69
2022/07/21 03:15:18;;;;;;;30.97;28.87;;;21.40;90.20;;;;;;4969961;28;20602;-69
2022/07/21 03:17:46;;;;;;;32.67;30.27;;;21.30;90.40;;;;;;4969281;28;20890;-69
2022/07/21 03:20:15;;;;;;;31.77;29.80;;;21.20;91.10;;;;;;4975270;28;20881;-71
2022/07/21 03:22:42;;;;;;;32.17;30.07;;;21.20;91.50;;;;;;4968172;28;20885;-69
2022/07/21 03:25:09;;;;;;;31.30;29.37;;;21.20;91.60;;;;;;4971146;28;20488;-68
2022/07/21 03:27:36;;;;;;;32.70;30.70;;;21.30;91.30;;;;;;4970398;28;20576;-69
2022/07/21 03:30:06;;;;;;;32.37;30.37;;;21.20;91.40;;;;;;4970892;28;20490;-69
2022/07/21 03:32:34;;;;;;;33.70;31.70;;;21.20;91.60;;;;;;4960997;28;20551;-70
2022/07/21 03:35:01;;;;;;;32.60;30.50;;;21.20;91.70;;;;;;4968462;28;20550;-69
2022/07/21 03:37:29;;;;;;;32.63;30.57;;;21.30;91.70;;;;;;4968665;28;20825;-69
2022/07/21 03:39:56;;;;;;;33.17;31.10;;;21.30;91.50;;;;;;4971261;28;20515;-69
2022/07/21 03:42:23;;;;;;;35.87;33.63;;;21.30;91.30;;;;;;4968968;28;20453;-69
2022/07/21 03:44:50;;;;;;;33.10;31.10;;;21.30;91.10;;;;;;4970735;28;20575;-69
2022/07/21 03:47:17;;;;;;;34.70;32.33;;;21.40;90.80;;;;;;4969794;28;20571;-69
2022/07/21 03:49:44;;;;;;;31.13;29.10;;;21.40;90.70;;;;;;4971311;28;20907;-69
2022/07/21 03:52:11;;;;;;;30.73;28.83;;;21.40;90.90;;;;;;4970435;28;20544;-69
2022/07/21 03:54:39;;;;;;;30.50;28.70;;;21.40;90.90;;;;;;4968778;28;20457;-68
2022/07/21 03:57:06;;;;;;;31.60;29.50;;;21.40;90.60;;;;;;4961181;28;20586;-69
2022/07/21 03:59:33;;;;;;;31.40;29.60;;;21.20;91.10;;;;;;4967966;28;20604;-69
2022/07/21 04:02:00;;;;;;;31.30;29.07;;;21.20;91.00;;;;;;4969486;28;20460;-69
2022/07/21 04:04:27;;;;;;;32.43;30.43;;;21.00;91.60;;;;;;4970619;28;20455;-69
2022/07/21 04:06:54;;;;;;;30.80;29.00;;;20.90;91.80;;;;;;4969427;28;20496;-71
2022/07/21 04:09:22;;;;;;;31.23;29.23;;;20.90;91.70;;;;;;4970410;28;20604;-71
2022/07/21 04:11:50;;;;;;;32.17;30.17;;;20.90;91.40;;;;;;4968280;28;20825;-68
2022/07/21 04:14:17;;;;;;;32.13;30.03;;;20.90;90.30;;;;;;4970360;28;20519;-69
2022/07/21 04:16:44;;;;;;;31.50;29.60;;;20.90;90.00;;;;;;4969723;28;20491;-69
2022/07/21 04:19:11;;;;;;;33.67;31.67;;;21.00;90.10;;;;;;4969578;28;20522;-68
2022/07/21 04:21:38;;;;;;;32.53;30.53;;;21.10;89.50;;;;;;4969302;28;20472;-68
2022/07/21 04:24:05;;;;;;;32.03;30.13;;;21.20;89.50;;;;;;4970597;28;20456;-68
2022/07/21 04:26:32;;;;;;;33.80;31.63;;;21.30;89.40;;;;;;4966753;28;20495;-69
2022/07/21 04:29:03;;;;;;;32.83;30.73;;;21.40;89.10;;;;;;4968398;28;20592;-69
2022/07/21 04:31:30;;;;;;;31.50;29.40;;;21.40;88.90;;;;;;4962108;28;20950;-68
2022/07/21 04:33:57;;;;;;;32.77;30.67;;;21.50;88.60;;;;;;4965662;28;21011;-68
2022/07/21 04:36:24;;;;;;;30.80;28.97;;;21.50;88.40;;;;;;4962325;28;20566;-68
2022/07/21 04:38:51;;;;;;;31.00;29.10;;;21.50;88.50;;;;;;4971351;28;20863;-69
2022/07/21 04:41:17;;;;;;;33.53;31.30;;;21.60;88.50;;;;;;4967629;28;20959;-70
2022/07/21 04:43:44;;;;;;;32.10;30.00;;;21.70;88.20;;;;;;4971856;28;20549;-72
2022/07/21 04:46:13;;;;;;;30.90;28.90;;;21.80;87.90;;;;;;4970271;28;20508;-72
2022/07/21 04:48:40;;;;;;;31.35;29.20;;;21.80;87.80;;;;;;4969300;28;20475;-73
2022/07/21 04:51:07;;;;;;;32.67;30.10;;;21.90;87.80;;;;;;4968550;28;20298;-72
2022/07/21 04:53:34;;;;;;;32.93;30.87;;;21.90;88.00;;;;;;4968978;28;20559;-73
2022/07/21 04:56:01;;;;;;;29.48;27.27;;;21.80;88.50;;;;;;4961744;28;20487;-74
2022/07/21 04:58:28;;;;;;;31.53;29.53;;;22.00;88.40;;;;;;4967803;28;20654;-75
2022/07/21 05:00:55;;;;;;;31.33;29.13;;;22.00;88.30;;;;;;4969886;28;20493;-74
2022/07/21 05:03:23;;;;;;;33.20;31.30;;;22.30;87.60;;;;;;4968345;28;21005;-73
2022/07/21 05:05:50;;;;;;;31.70;29.73;;;22.30;87.50;;;;;;4969890;28;20462;-71
2022/07/21 05:08:17;;;;;;;31.27;29.23;;;22.40;87.30;;;;;;4969463;28;20557;-71
2022/07/21 05:10:44;;;;;;;35.17;32.97;;;22.30;87.50;;;;;;4972528;28;20457;-70
2022/07/21 05:13:11;;;;;;;32.57;30.57;;;22.40;87.10;;;;;;4965795;28;20538;-73
2022/07/21 05:15:38;;;;;;;34.97;32.70;;;22.50;86.50;;;;;;4969957;28;20505;-72
2022/07/21 05:18:08;;;;;;;32.57;30.17;;;22.60;86.10;;;;;;4965253;28;20498;-70
2022/07/21 05:20:37;;;;;;;33.10;31.00;;;22.80;85.40;;;;;;4976761;28;20971;-70
2022/07/21 05:23:04;;;;;;;33.90;31.60;;;22.80;85.00;;;;;;4968222;28;20491;-72
2022/07/21 05:25:31;;;;;;;35.97;33.67;;;22.90;84.70;;;;;;4972451;28;21044;-71
2022/07/21 05:27:59;;;;;;;33.03;30.70;;;22.90;84.30;;;;;;4960144;28;22622;-70
2022/07/21 05:30:26;;;;;;;31.77;29.97;;;22.90;83.40;;;;;;4968634;28;20554;-70
2022/07/21 05:32:52;;;;;;;34.03;31.70;;;22.80;83.50;;;;;;4962258;28;20564;-70
2022/07/21 05:35:20;;;;;;;34.20;32.20;;;22.80;84.10;;;;;;4964512;28;20550;-72
2022/07/21 05:37:48;;;;;;;32.87;30.80;;;22.90;84.20;;;;;;4967225;28;20570;-73
2022/07/21 05:40:15;;;;;;;34.13;31.90;;;23.10;84.00;;;;;;4963314;28;20550;-71
2022/07/21 05:42:42;;;;;;;33.30;31.13;;;23.20;83.40;;;;;;4970234;28;21050;-71
2022/07/21 05:45:10;;;;;;;34.20;31.87;;;23.30;83.50;;;;;;4968753;28;20455;-73
2022/07/21 05:47:37;;;;;;;36.70;34.30;;;23.40;82.90;;;;;;4964065;28;20558;-74
2022/07/21 05:50:05;;;;;;;34.60;32.40;;;23.40;81.80;;;;;;4962953;28;20569;-74
2022/07/21 05:52:32;;;;;;;38.60;36.10;;;23.40;82.00;;;;;;4966493;28;20510;-72
2022/07/21 05:55:00;;;;;;;37.83;34.90;;;23.50;82.20;;;;;;4965783;28;20542;-73
2022/07/21 05:57:27;;;;;;;35.40;33.30;;;23.70;81.90;;;;;;4962539;28;20534;-69
2022/07/21 05:59:54;;;;;;;36.27;33.97;;;23.60;82.30;;;;;;4967491;28;20522;-70
2022/07/21 06:02:21;;;;;;;39.70;37.10;;;23.70;82.10;;;;;;4957264;28;20477;-72
2022/07/21 06:04:48;;;;;;;36.33;34.03;;;23.70;81.50;;;;;;4968599;28;20465;-70
2022/07/21 06:07:15;;;;;;;36.67;34.13;;;23.60;81.30;;;;;;4965967;28;20577;-71
2022/07/21 06:09:42;;;;;;;39.17;36.60;;;23.60;81.50;;;;;;4965803;28;20486;-77
2022/07/21 06:12:10;;;;;;;41.53;39.13;;;23.50;81.70;;;;;;4970074;28;20521;-73
2022/07/21 06:14:37;;;;;;;40.60;37.93;;;23.60;81.70;;;;;;4964591;28;20463;-71
2022/07/21 06:17:04;;;;;;;36.93;34.70;;;23.80;81.30;;;;;;4963503;28;21190;-71
2022/07/21 06:19:32;;;;;;;40.83;37.90;;;23.90;80.00;;;;;;4968981;28;20561;-71
2022/07/21 06:22:02;;;;;;;42.00;39.80;;;23.90;79.20;;;;;;4970311;28;20463;-72
2022/07/21 06:24:29;;;;;;;41.63;38.70;;;23.90;79.30;;;;;;4964800;28;20561;-71
2022/07/21 06:26:56;;;;;;;37.17;34.93;;;24.00;79.40;;;;;;4969248;28;20550;-73
2022/07/21 06:29:25;;;;;;;37.67;35.30;;;24.10;78.50;;;;;;4969752;28;20478;-74
2022/07/21 06:31:52;;;;;;;40.73;38.40;;;24.20;77.70;;;;;;4967282;28;21029;-74
2022/07/21 06:34:19;;;;;;;40.10;37.53;;;24.20;76.40;;;;;;4967757;28;20885;-76
2022/07/21 06:36:46;;;;;;;38.83;36.13;;;24.20;76.50;;;;;;4969261;28;20466;-72
2022/07/21 06:39:13;;;;;;;38.30;35.40;;;24.10;76.70;;;;;;4966101;28;20479;-74
2022/07/21 06:41:41;;;;;;;38.47;36.17;;;24.10;77.10;;;;;;4968015;28;20458;-76
2022/07/21 06:44:08;;;;;;;40.53;38.03;;;24.40;76.50;;;;;;4968588;28;20590;-77
2022/07/21 06:46:36;;;;;;;41.13;38.67;;;24.70;75.10;;;;;;4967878;28;20544;-74
2022/07/21 06:49:04;;;;;;;37.17;34.97;;;24.70;72.70;;;;;;4971079;28;20493;-74
2022/07/21 06:51:31;;;;;;;42.77;39.90;;;24.50;73.00;;;;;;4968921;28;20471;-73
2022/07/21 06:53:58;;;;;;;40.87;38.60;;;24.60;73.20;;;;;;4970915;28;21075;-72
2022/07/21 06:56:25;;;;;;;40.00;37.33;;;24.70;73.30;;;;;;4971039;28;20880;-72
2022/07/21 06:58:52;;;;;;;45.60;42.97;;;24.70;73.20;;;;;;4972802;28;20491;-72
2022/07/21 07:01:19;;;;;;;42.33;39.40;;;24.90;72.40;;;;;;4971392;28;20468;-73
2022/07/21 07:03:47;;;;;;;39.73;37.03;;;25.00;72.30;;;;;;4971679;28;20494;-75
2022/07/21 07:06:14;;;;;;;39.87;37.50;;;25.10;72.30;;;;;;4972570;28;20543;-72
2022/07/21 07:08:41;;;;;;;38.90;36.60;;;25.20;71.40;;;;;;4970151;28;20527;-71
2022/07/21 07:11:08;;;;;;;41.67;38.77;;;25.30;70.90;;;;;;4968637;28;20548;-72
2022/07/21 07:13:35;;;;;;;44.03;41.50;;;25.40;70.40;;;;;;4972604;28;20589;-72
2022/07/21 07:16:02;;;;;;;38.40;35.63;;;25.30;68.80;;;;;;4968191;28;20468;-72
2022/07/21 07:18:29;;;;;;;39.50;37.00;;;25.10;70.50;;;;;;4972821;28;20567;-71
2022/07/21 07:20:57;;;;;;;39.50;36.90;;;25.10;70.20;;;;;;4970064;28;20534;-73
2022/07/21 07:23:24;;;;;;;41.87;38.87;;;25.10;70.80;;;;;;4969896;28;20485;-72
2022/07/21 07:25:51;;;;;;;40.60;38.10;;;25.10;70.20;;;;;;4971522;28;20574;-72
2022/07/21 07:28:18;;;;;;;39.50;36.60;;;25.10;70.30;;;;;;4971767;28;20563;-72
2022/07/21 07:30:45;;;;;;;38.13;35.80;;;25.10;70.60;;;;;;4971689;28;20492;-72
2022/07/21 07:33:12;;;;;;;44.07;41.00;;;25.20;70.00;;;;;;4971403;28;20499;-73
2022/07/21 07:35:39;;;;;;;40.73;38.13;;;25.50;69.40;;;;;;4971257;28;21065;-72
2022/07/21 07:38:07;;;;;;;45.07;42.20;;;25.70;68.90;;;;;;4971610;28;20982;-73
2022/07/21 07:40:36;;;;;;;42.50;40.00;;;25.80;68.20;;;;;;4972759;28;20897;-72
2022/07/21 07:43:03;;;;;;;41.50;39.13;;;25.70;67.70;;;;;;4971758;28;20543;-72
2022/07/21 07:45:30;;;;;;;44.47;41.50;;;25.40;68.50;;;;;;4967646;28;20569;-72
2022/07/21 07:47:57;;;;;;;41.53;38.80;;;25.60;68.90;;;;;;4971833;28;20553;-72
2022/07/21 07:50:24;;;;;;;38.00;35.63;;;25.90;68.40;;;;;;4968268;28;20574;-70
2022/07/21 07:52:51;;;;;;;39.73;37.30;;;26.10;67.70;;;;;;4966772;28;20474;-70
2022/07/21 07:55:19;;;;;;;37.83;35.53;;;26.20;66.30;;;;;;4970359;28;20980;-71
2022/07/21 07:57:46;;;;;;;38.87;36.10;;;25.90;66.00;;;;;;4971121;28;20838;-69
2022/07/21 08:00:16;;;;;;;39.00;36.43;;;25.70;66.00;;;;;;4968060;28;21040;-69
2022/07/21 08:02:43;;;;;;;42.10;39.40;;;25.80;66.10;;;;;;4966584;28;20476;-69
2022/07/21 08:05:10;;;;;;;40.10;37.47;;;25.90;65.60;;;;;;4970174;28;20464;-70
2022/07/21 08:07:38;;;;;;;42.57;39.47;;;25.70;66.70;;;;;;4968200;28;20534;-69
2022/07/21 08:10:06;;;;;;;42.57;39.77;;;25.90;66.60;;;;;;4970377;28;20577;-69
2022/07/21 08:12:35;;;;;;;39.33;36.73;;;26.30;65.70;;;;;;4970444;28;20884;-70
2022/07/21 08:15:02;;;;;;;38.73;36.23;;;26.40;64.30;;;;;;4970161;28;20466;-69
2022/07/21 08:17:29;;;;;;;43.60;40.90;;;25.90;63.10;;;;;;4965769;28;20489;-69
2022/07/21 08:19:56;;;;;;;37.57;35.17;;;25.80;63.50;;;;;;4971516;28;20518;-69
2022/07/21 08:22:23;;;;;;;37.77;35.33;;;25.80;64.10;;;;;;4971726;28;20469;-70
2022/07/21 08:24:50;;;;;;;40.23;37.73;;;25.60;65.40;;;;;;4971086;28;20494;-69
2022/07/21 08:27:17;;;;;;;35.87;33.67;;;25.40;65.40;;;;;;4970692;28;20525;-69
2022/07/21 08:29:46;;;;;;;37.13;34.73;;;25.70;65.50;;;;;;4966310;28;20491;-69
2022/07/21 08:32:13;;;;;;;37.67;35.50;;;26.00;64.20;;;;;;4970551;28;20474;-72
2022/07/21 08:34:40;;;;;;;43.97;40.50;;;26.20;63.90;;;;;;4970522;28;20561;-69
2022/07/21 08:37:07;;;;;;;39.13;36.20;;;26.40;64.10;;;;;;4971212;28;20537;-70
2022/07/21 08:39:34;;;;;;;42.43;39.90;;;26.70;64.30;;;;;;4972448;28;20905;-72
2022/07/21 08:42:02;;;;;;;39.90;36.93;;;27.10;62.10;;;;;;4972082;28;20491;-72
2022/07/21 08:44:29;;;;;;;37.33;34.83;;;27.10;60.90;;;;;;4970295;28;20471;-70
2022/07/21 08:46:58;;;;;;;40.10;37.33;;;26.90;60.80;;;;;;4970177;28;20455;-70
2022/07/21 08:49:25;;;;;;;41.37;38.30;;;26.90;61.20;;;;;;4968663;28;20581;-67
2022/07/21 08:51:52;;;;;;;36.47;34.10;;;27.10;60.70;;;;;;4970564;28;20502;-67
2022/07/21 08:54:21;;;;;;;38.77;36.23;;;26.90;61.10;;;;;;4965713;28;20486;-67
2022/07/21 08:56:48;;;;;;;39.30;36.80;;;26.90;61.80;;;;;;4970355;28;20466;-68
2022/07/21 08:59:15;;;;;;;37.90;35.43;;;26.90;62.20;;;;;;4971196;28;20899;-68
2022/07/21 09:01:42;;;;;;;41.40;38.63;;;27.10;61.70;;;;;;4969872;28;20483;-67
2022/07/21 09:04:28;;;;;;;41.10;38.60;;;27.20;61.10;;;;;;4971842;28;20864;-68
2022/07/21 09:06:57;;;;;;;41.13;38.53;;;27.10;61.40;;;;;;4969909;28;20537;-67
2022/07/21 09:09:25;;;;;;;40.33;37.93;;;27.10;60.80;;;;;;4971247;28;20581;-67
2022/07/21 09:11:53;;;;;;;36.87;34.60;;;27.10;59.60;;;;;;4969756;28;20598;-67
2022/07/21 09:14:22;;;;;;;39.40;37.03;;;27.10;60.00;;;;;;4970676;28;20487;-67
2022/07/21 09:16:51;;;;;;;40.07;37.60;;;27.10;58.40;;;;;;4966042;28;20554;-68
2022/07/21 09:19:21;;;;;;;35.87;33.60;;;26.90;59.00;;;;;;4963499;28;20471;-67
2022/07/21 09:21:51;;;;;;;40.03;36.80;;;27.00;59.10;;;;;;4969703;28;20467;-67
2022/07/21 09:24:21;;;;;;;38.80;36.50;;;27.10;59.60;;;;;;4970252;28;20902;-67
2022/07/21 09:27:19;;;;;;;39.40;36.60;;;27.20;57.80;;;;;;4969118;28;20462;-67
2022/07/21 09:29:48;;;;;;;35.77;33.60;;;27.20;58.60;;;;;;4965974;28;20483;-68
2022/07/21 09:32:24;;;;;;;40.50;38.00;;;26.80;57.70;;;;;;4963553;28;20575;-67
2022/07/21 09:34:53;;;;;;;38.83;36.63;;;26.50;59.00;;;;;;4970580;28;20560;-70
2022/07/21 09:37:23;;;;;;;37.63;35.03;;;26.50;59.40;;;;;;4968174;28;21008;-70
2022/07/21 09:39:52;;;;;;;37.90;35.33;;;26.50;59.70;;;;;;4971034;28;20471;-70
2022/07/21 09:42:23;;;;;;;36.83;34.63;;;26.80;60.00;;;;;;4968679;28;20507;-69
2022/07/21 09:44:52;;;;;;;41.20;38.60;;;27.00;59.60;;;;;;4970236;28;20459;-70
2022/07/21 09:47:21;;;;;;;39.13;36.10;;;27.40;59.00;;;;;;4969544;28;20467;-70
2022/07/21 09:49:48;;;;;;;39.50;36.83;;;27.60;57.50;;;;;;4965666;28;20582;-70
2022/07/21 09:52:22;;;;;;;36.80;34.60;;;27.80;57.10;;;;;;4968024;28;20487;-70
2022/07/21 09:54:49;;;;;;;40.00;37.60;;;27.70;56.20;;;;;;4969095;28;20555;-68
2022/07/21 09:57:17;;;;;;;34.73;32.53;;;27.70;56.60;;;;;;4967319;28;20476;-70
2022/07/21 09:59:45;;;;;;;34.83;32.73;;;27.80;56.10;;;;;;4970642;28;20559;-69
2022/07/21 10:02:17;;;;;;;37.07;34.87;;;27.70;55.00;;;;;;4968932;28;20455;-69
2022/07/21 10:04:46;;;;;;;34.77;32.77;;;27.30;56.60;;;;;;4969984;28;20465;-70
2022/07/21 10:07:15;;;;;;;39.03;36.47;;;27.60;56.70;;;;;;4969702;28;21230;-71
2022/07/21 10:09:44;;;;;;;35.53;33.33;;;28.00;56.00;;;;;;4969995;28;20486;-70
2022/07/21 10:12:11;;;;;;;37.13;34.67;;;28.30;54.80;;;;;;4969896;28;20469;-69
2022/07/21 10:14:38;;;;;;;36.77;34.50;;;28.40;53.20;;;;;;4969293;28;20635;-69
2022/07/21 10:17:06;;;;;;;39.67;37.07;;;28.40;52.80;;;;;;4965743;28;20483;-70
2022/07/21 10:19:40;;;;;;;39.67;37.37;;;28.70;52.80;;;;;;4971160;28;20475;-68
2022/07/21 10:22:22;;;;;;;35.67;33.37;;;29.00;52.30;;;;;;4967728;28;20556;-67
2022/07/21 10:24:52;;;;;;;35.17;32.87;;;29.30;51.00;;;;;;4969726;28;20570;-68
2022/07/21 10:27:19;;;;;;;38.23;36.03;;;29.40;50.50;;;;;;4969927;28;20466;-68
2022/07/21 10:30:01;;;;;;;37.67;35.47;;;29.10;49.70;;;;;;4968940;28;20980;-68
2022/07/21 10:32:31;;;;;;;39.77;37.47;;;28.70;49.90;;;;;;4970093;28;20465;-68
2022/07/21 10:34:59;;;;;;;36.00;33.80;;;28.10;51.40;;;;;;4969480;28;20451;-68
2022/07/21 10:37:46;;;;;;;37.33;35.27;;;27.80;52.50;;;;;;4967952;28;20486;-67
2022/07/21 10:40:37;;;;;;;35.00;32.90;;;27.40;52.80;;;;;;4965434;28;20485;-67
2022/07/21 10:43:42;;;;;;;35.83;33.77;;;27.20;53.80;;;;;;4965687;28;20454;-68
2022/07/21 10:46:38;;;;;;;38.33;36.03;;;27.30;52.10;;;;;;4961383;28;20561;-71
2022/07/21 10:49:09;;;;;;;35.50;33.30;;;27.60;52.30;;;;;;4969747;28;20992;-71
2022/07/21 10:51:38;;;;;;;39.73;37.53;;;27.90;52.00;;;;;;4967916;28;20507;-70
2022/07/21 10:54:20;;;;;;;34.00;31.93;;;28.20;50.90;;;;;;4962366;28;20459;-70
2022/07/21 10:56:48;;;;;;;35.13;33.03;;;28.50;50.80;;;;;;4968818;28;20481;-70
2022/07/21 10:59:15;;;;;;;36.70;34.43;;;28.30;51.10;;;;;;4967912;28;20518;-70
2022/07/21 11:01:43;;;;;;;35.07;32.97;;;28.30;50.80;;;;;;4966552;28;20487;-70
2022/07/21 11:04:12;;;;;;;38.80;36.50;;;28.20;51.20;;;;;;4970245;28;20546;-70
2022/07/21 11:06:40;;;;;;;36.93;34.77;;;28.30;50.80;;;;;;4963963;28;20463;-69
2022/07/21 11:09:12;;;;;;;35.83;33.70;;;28.30;50.50;;;;;;4968749;28;20494;-69
2022/07/21 11:11:57;;;;;;;33.70;31.70;;;28.60;50.60;;;;;;4965976;28;20630;-69
2022/07/21 11:14:36;;;;;;;38.10;35.93;;;28.60;48.90;;;;;;4962883;28;20494;-69
2022/07/21 11:17:03;;;;;;;34.87;32.77;;;28.60;49.90;;;;;;4963612;28;20466;-69
2022/07/21 11:19:33;;;;;;;33.67;31.77;;;28.80;49.70;;;;;;4969618;28;20529;-70
2022/07/21 11:22:03;;;;;;;36.20;34.30;;;29.00;48.70;;;;;;4968131;28;20853;-69
2022/07/21 11:24:32;;;;;;;35.33;33.30;;;29.20;48.60;;;;;;4968722;28;21011;-69
2022/07/21 11:27:01;;;;;;;35.63;33.43;;;29.60;47.60;;;;;;4965530;28;20886;-75
2022/07/21 11:29:31;;;;;;;33.50;31.60;;;29.20;47.10;;;;;;4968910;28;20517;-71
2022/07/21 11:32:01;;;;;;;33.07;31.17;;;28.90;47.60;;;;;;4967779;28;21754;-71
2022/07/21 11:34:38;;;;;;;34.77;32.77;;;28.90;47.50;;;;;;4966292;28;20498;-70
2022/07/21 11:37:05;;;;;;;36.17;34.07;;;28.90;48.00;;;;;;4968902;28;20462;-70
2022/07/21 11:39:33;;;;;;;37.40;35.30;;;29.00;47.20;;;;;;4972631;28;20573;-70
2022/07/21 11:42:03;;;;;;;36.13;34.03;;;28.90;47.40;;;;;;4974704;28;20463;-72
2022/07/21 11:44:32;;;;;;;38.60;36.50;;;29.30;47.30;;;;;;4971622;28;20461;-70
2022/07/21 11:47:01;;;;;;;35.43;33.43;;;29.30;47.20;;;;;;4971518;28;20468;-70
2022/07/21 11:49:31;;;;;;;37.17;34.97;;;29.20;46.40;;;;;;4966170;28;20478;-71
2022/07/21 11:52:00;;;;;;;38.67;36.47;;;28.90;47.00;;;;;;4970587;28;20501;-70
2022/07/21 11:54:31;;;;;;;34.53;32.50;;;28.90;47.20;;;;;;4969968;28;20459;-70
2022/07/21 11:56:59;;;;;;;39.07;36.83;;;28.90;46.70;;;;;;4970641;28;20944;-69
2022/07/21 11:59:27;;;;;;;36.23;34.03;;;29.00;47.50;;;;;;4973360;28;20564;-69
2022/07/21 12:01:59;;;;;;;40.23;37.83;;;29.30;47.90;;;;;;4966277;28;20465;-72
2022/07/21 12:04:38;;;;;;;34.30;32.20;;;29.10;47.80;;;;;;4973193;28;20454;-68
2022/07/21 12:07:11;;;;;;;35.60;33.37;;;29.10;48.50;;;;;;4970437;28;20458;-67
2022/07/21 12:09:39;;;;;;;37.20;34.97;;;29.20;48.90;;;;;;4971929;28;20479;-67
2022/07/21 12:12:07;;;;;;;37.30;35.00;;;28.90;49.10;;;;;;4972070;28;20563;-68
2022/07/21 12:14:43;;;;;;;34.83;32.63;;;28.70;49.80;;;;;;4971967;28;20533;-67
2022/07/21 12:17:12;;;;;;;38.00;35.80;;;28.80;49.30;;;;;;4971455;28;20510;-71
2022/07/21 12:19:39;;;;;;;36.30;34.10;;;29.00;49.10;;;;;;4972814;28;21027;-70
2022/07/21 12:22:07;;;;;;;34.47;32.27;;;29.50;48.80;;;;;;4969927;28;20496;-73
2022/07/21 12:24:58;;;;;;;35.50;33.40;;;29.90;47.20;;;;;;4971061;28;20482;-70
2022/07/21 12:27:25;;;;;;;36.90;34.40;;;30.20;46.30;;;;;;4972245;28;20990;-70
2022/07/21 12:29:52;;;;;;;37.23;34.93;;;30.50;46.90;;;;;;4975305;28;20478;-72
2022/07/21 12:32:41;;;;;;;40.57;38.27;;;30.70;46.30;;;;;;4968733;28;20547;-71
2022/07/21 12:35:18;;;;;;;38.17;35.97;;;31.00;44.70;;;;;;4972201;28;20458;-70
2022/07/21 12:38:00;;;;;;;36.37;34.13;;;30.70;45.80;;;;;;4964431;28;20454;-71